createdAt,value
2022-11-17T00:01:06.737Z,2.05
2022-11-17T00:03:34.455Z,0.85
2022-11-17T00:06:06.298Z,2.00
2022-11-17T00:08:33.777Z,2.55
2022-11-17T00:11:02.270Z,1.20
2022-11-17T00:13:33.724Z,2.33
2022-11-17T00:16:01.301Z,3.58
2022-11-17T00:18:31.605Z,0.88
2022-11-17T00:20:58.887Z,1.45
2022-11-17T00:23:27.366Z,2.85
2022-11-17T00:25:57.932Z,1.20
2022-11-17T00:28:27.762Z,1.02
2022-11-17T00:30:54.904Z,0.63
2022-11-17T00:33:24.389Z,1.65
2022-11-17T00:35:55.283Z,1.23
2022-11-17T00:38:22.443Z,2.00
2022-11-17T00:40:52.314Z,2.20
2022-11-17T00:43:19.452Z,2.38
2022-11-17T00:45:47.195Z,1.92
2022-11-17T00:48:17.466Z,1.48
2022-11-17T00:50:44.696Z,1.17
2022-11-17T00:53:14.032Z,1.13
2022-11-17T00:55:45.015Z,3.85
2022-11-17T00:58:14.997Z,1.15
2022-11-17T01:00:42.398Z,0.75
2022-11-17T01:03:12.821Z,1.25
2022-11-17T01:05:46.150Z,1.35
2022-11-17T01:08:15.691Z,1.77
2022-11-17T01:10:45.818Z,1.83
2022-11-17T01:13:17.779Z,1.67
2022-11-17T01:15:48.297Z,2.28
2022-11-17T01:18:16.334Z,3.05
2022-11-17T01:20:47.705Z,2.15
2022-11-17T01:23:23.249Z,1.38
2022-11-17T01:25:53.757Z,1.98
2022-11-17T01:28:27.079Z,1.70
2022-11-17T01:31:10.122Z,1.65
2022-11-17T01:33:43.397Z,2.00
2022-11-17T01:36:18.988Z,1.88
2022-11-17T01:38:46.873Z,0.75
2022-11-17T01:41:25.043Z,1.17
2022-11-17T01:43:57.009Z,1.50
2022-11-17T01:46:42.078Z,2.25
2022-11-17T01:49:29.041Z,2.17
2022-11-17T01:52:14.262Z,0.40
2022-11-17T01:54:47.331Z,2.38
2022-11-17T01:57:50.794Z,1.80
2022-11-17T02:00:25.190Z,1.13
2022-11-17T02:02:59.711Z,1.50
2022-11-17T02:05:57.095Z,0.75
2022-11-17T02:08:29.682Z,1.48
2022-11-17T02:11:07.305Z,2.55
2022-11-17T02:13:38.451Z,1.60
2022-11-17T02:16:11.806Z,3.40
2022-11-17T02:18:40.388Z,1.75
2022-11-17T02:21:36.451Z,1.00
2022-11-17T02:24:25.279Z,1.70
2022-11-17T02:27:13.763Z,1.00
2022-11-17T02:29:53.309Z,1.73
2022-11-17T02:32:46.416Z,2.95
2022-11-17T02:35:49.358Z,2.38
2022-11-17T02:38:49.825Z,0.77
2022-11-17T02:41:24.374Z,0.45
2022-11-17T02:44:13.424Z,2.65
2022-11-17T02:46:49.606Z,2.10
2022-11-17T02:49:24.549Z,2.55
2022-11-17T02:51:55.459Z,1.65
2022-11-17T02:54:26.663Z,0.85
2022-11-17T02:56:59.585Z,1.02
2022-11-17T02:59:40.338Z,0.82
2022-11-17T03:02:48.659Z,2.35
2022-11-17T03:05:26.572Z,1.80
2022-11-17T03:08:02.180Z,1.80
2022-11-17T03:10:58.389Z,2.88
2022-11-17T03:14:10.489Z,3.17
2022-11-17T03:16:53.704Z,2.67
2022-11-17T03:19:41.527Z,2.15
2022-11-17T03:22:32.181Z,2.78
2022-11-17T03:25:04.348Z,3.40
2022-11-17T03:27:42.412Z,2.90
2022-11-17T03:30:11.410Z,1.75
2022-11-17T03:32:47.635Z,0.50
2022-11-17T03:35:23.409Z,4.13
2022-11-17T03:37:59.462Z,1.90
2022-11-17T03:40:29.541Z,0.98
2022-11-17T03:43:01.576Z,1.92
2022-11-17T03:45:36.938Z,1.80
2022-11-17T03:48:16.551Z,1.40
2022-11-17T03:50:47.432Z,2.30
2022-11-17T03:53:14.762Z,0.77
2022-11-17T03:55:45.531Z,0.80
2022-11-17T03:58:17.202Z,1.75
2022-11-17T04:00:46.571Z,2.42
2022-11-17T04:03:15.080Z,2.13
2022-11-17T04:05:42.304Z,1.20
2022-11-17T04:08:12.540Z,2.08
2022-11-17T04:10:39.821Z,2.55
2022-11-17T04:13:08.645Z,1.40
2022-11-17T04:15:35.805Z,1.13
2022-11-17T04:18:04.353Z,2.40
2022-11-17T04:20:32.456Z,0.93
2022-11-17T04:22:59.742Z,1.75
2022-11-17T04:25:27.059Z,2.08
2022-11-17T04:27:54.299Z,3.00
2022-11-17T04:30:21.591Z,0.88
2022-11-17T04:32:48.851Z,2.72
2022-11-17T04:35:16.146Z,0.95
2022-11-17T04:37:43.411Z,1.27
2022-11-17T04:40:11.142Z,2.60
2022-11-17T04:42:38.424Z,1.83
2022-11-17T04:45:06.575Z,2.30
2022-11-17T04:47:33.841Z,1.30
2022-11-17T04:50:01.190Z,2.53
2022-11-17T04:52:31.821Z,1.05
2022-11-17T04:55:02.446Z,2.00
2022-11-17T04:57:29.592Z,1.77
2022-11-17T04:59:56.702Z,3.60
2022-11-17T05:02:24.258Z,1.08
2022-11-17T05:04:54.214Z,1.20
2022-11-17T05:07:26.695Z,0.85
2022-11-17T05:09:53.801Z,2.40
2022-11-17T05:12:23.974Z,1.55
2022-11-17T05:14:51.693Z,2.03
2022-11-17T05:17:19.288Z,1.15
2022-11-17T05:19:48.191Z,1.30
2022-11-17T05:22:18.670Z,1.90
2022-11-17T05:24:46.370Z,1.20
2022-11-17T05:27:13.486Z,1.52
2022-11-17T05:29:40.784Z,1.33
2022-11-17T05:32:08.014Z,2.10
2022-11-17T05:34:35.139Z,2.60
2022-11-17T05:37:05.351Z,3.58
2022-11-17T05:39:38.532Z,0.98
2022-11-17T05:42:06.917Z,1.40
2022-11-17T05:44:34.172Z,2.20
2022-11-17T05:47:01.839Z,1.75
2022-11-17T05:49:29.105Z,3.53
2022-11-17T05:51:59.698Z,1.15
2022-11-17T05:54:26.816Z,2.43
2022-11-17T05:57:03.499Z,1.63
2022-11-17T05:59:45.826Z,2.58
2022-11-17T06:02:20.865Z,1.92
2022-11-17T06:04:49.975Z,2.30
2022-11-17T06:07:24.984Z,1.67
2022-11-17T06:10:04.539Z,1.73
2022-11-17T06:12:31.804Z,3.33
2022-11-17T06:14:59.044Z,2.45
2022-11-17T06:17:34.497Z,2.33
2022-11-17T06:20:07.551Z,2.22
2022-11-17T06:22:35.704Z,3.20
2022-11-17T06:25:05.485Z,1.30
2022-11-17T06:27:34.244Z,1.85
2022-11-17T06:30:03.910Z,0.93
2022-11-17T06:32:34.962Z,2.30
2022-11-17T06:35:04.140Z,1.08
2022-11-17T06:37:31.598Z,1.05
2022-11-17T06:39:59.064Z,1.45
2022-11-17T06:42:26.153Z,3.70
2022-11-17T06:44:53.312Z,2.90
2022-11-17T06:47:21.001Z,3.25
2022-11-17T06:49:48.378Z,2.67
2022-11-17T06:52:15.558Z,3.58
2022-11-17T06:54:45.983Z,4.38
2022-11-17T06:57:13.251Z,1.33
2022-11-17T06:59:40.401Z,1.83
2022-11-17T07:02:07.886Z,2.00
2022-11-17T07:04:35.361Z,3.55
2022-11-17T07:07:02.697Z,1.75
2022-11-17T07:09:30.067Z,2.15
2022-11-17T07:11:57.841Z,1.20
2022-11-17T07:14:25.123Z,1.58
2022-11-17T07:16:52.335Z,2.28
2022-11-17T07:19:19.569Z,2.05
2022-11-17T07:21:46.753Z,0.63
2022-11-17T07:24:13.952Z,3.45
2022-11-17T07:26:41.203Z,1.83
2022-11-17T07:29:11.304Z,2.25
2022-11-17T07:31:38.882Z,2.58
2022-11-17T07:34:06.055Z,3.08
2022-11-17T07:36:33.525Z,2.78
2022-11-17T07:39:00.752Z,1.08
2022-11-17T07:41:28.076Z,2.38
2022-11-17T07:43:58.020Z,3.75
2022-11-17T07:46:25.535Z,0.70
2022-11-17T07:48:56.349Z,1.10
2022-11-17T07:51:23.538Z,0.80
2022-11-17T07:53:54.076Z,1.58
2022-11-17T07:56:21.333Z,1.40
2022-11-17T07:58:57.354Z,4.43
2022-11-17T08:01:30.963Z,2.15
2022-11-17T08:04:00.759Z,2.72
2022-11-17T08:06:31.249Z,1.77
2022-11-17T08:08:59.201Z,1.17
2022-11-17T08:11:26.467Z,2.60
2022-11-17T08:13:59.229Z,3.50
2022-11-17T08:16:26.536Z,2.95
2022-11-17T08:18:54.441Z,1.45
2022-11-17T08:21:21.718Z,2.63
2022-11-17T08:23:53.091Z,2.03
2022-11-17T08:26:24.025Z,1.73
2022-11-17T08:28:56.855Z,0.85
2022-11-17T08:31:28.711Z,1.33
2022-11-17T08:33:56.386Z,0.63
2022-11-17T08:36:23.655Z,1.88
2022-11-17T08:38:53.753Z,1.35
2022-11-17T08:41:23.917Z,1.95
2022-11-17T08:43:53.937Z,3.30
2022-11-17T08:46:21.667Z,1.90
2022-11-17T08:48:56.877Z,1.00
2022-11-17T08:51:28.527Z,3.17
2022-11-17T08:53:56.779Z,3.10
2022-11-17T08:56:26.718Z,1.73
2022-11-17T08:58:54.068Z,1.33
2022-11-17T09:01:21.345Z,1.50
2022-11-17T09:03:51.507Z,2.60
2022-11-17T09:06:19.204Z,2.60
2022-11-17T09:08:49.568Z,1.13
2022-11-17T09:11:17.101Z,2.25
2022-11-17T09:13:52.947Z,0.73
2022-11-17T09:16:20.166Z,0.93
2022-11-17T09:18:50.356Z,2.53
2022-11-17T09:21:20.675Z,2.53
2022-11-17T09:23:57.271Z,1.38
2022-11-17T09:26:33.902Z,1.33
2022-11-17T09:29:02.954Z,1.58
2022-11-17T09:31:30.606Z,0.38
2022-11-17T09:34:00.818Z,1.10
2022-11-17T09:36:37.757Z,1.23
2022-11-17T09:39:08.263Z,0.93
2022-11-17T09:41:48.791Z,0.83
2022-11-17T09:44:40.054Z,0.55
2022-11-17T09:47:19.426Z,0.10
2022-11-17T09:50:08.230Z,0.40
2022-11-17T09:52:47.646Z,0.22
2022-11-17T09:55:27.260Z,0.38
2022-11-17T09:58:06.503Z,0.10
2022-11-17T10:00:38.648Z,0.13
2022-11-17T10:03:20.012Z,0.15
2022-11-17T10:05:48.676Z,0.10
2022-11-17T10:08:20.431Z,0.15
2022-11-17T10:10:54.258Z,0.45
2022-11-17T10:13:33.713Z,0.15
2022-11-17T10:16:13.996Z,0.10
2022-11-17T10:18:46.489Z,0.77
2022-11-17T10:21:16.681Z,0.30
2022-11-17T10:23:47.270Z,0.10
2022-11-17T10:26:17.839Z,0.10
2022-11-17T10:28:45.963Z,0.30
2022-11-17T10:31:17.212Z,0.10
2022-11-17T10:33:49.246Z,0.68
2022-11-17T10:36:20.926Z,0.03
2022-11-17T10:38:56.099Z,0.05
2022-11-17T10:41:36.911Z,0.15
2022-11-17T10:44:15.245Z,0.95
2022-11-17T10:47:03.184Z,0.05
2022-11-17T10:49:35.131Z,0.30
2022-11-17T10:52:14.270Z,0.30
2022-11-17T10:54:46.686Z,1.00
2022-11-17T10:57:22.683Z,0.35
2022-11-17T10:59:56.199Z,0.82
2022-11-17T11:02:27.347Z,0.20
2022-11-17T11:05:18.336Z,0.10
2022-11-17T11:07:45.803Z,0.10
2022-11-17T11:10:25.598Z,0.08
2022-11-17T11:13:18.939Z,0.10
2022-11-17T11:15:46.620Z,0.20
2022-11-17T11:18:16.744Z,0.40
2022-11-17T11:21:09.409Z,0.75
2022-11-17T11:23:49.105Z,0.32
2022-11-17T11:26:22.543Z,0.40
2022-11-17T11:29:11.768Z,0.10
2022-11-17T11:31:53.482Z,0.10
2022-11-17T11:34:32.783Z,0.20
2022-11-17T11:37:17.414Z,0.10
2022-11-17T11:39:56.551Z,0.17
2022-11-17T11:42:50.637Z,0.20
2022-11-17T11:45:23.783Z,0.30
2022-11-17T11:48:08.523Z,0.10
2022-11-17T11:51:00.383Z,0.28
2022-11-17T11:54:03.801Z,0.40
2022-11-17T11:56:39.193Z,0.10
2022-11-17T11:59:42.964Z,0.10
2022-11-17T12:02:13.188Z,0.52
2022-11-17T12:05:07.675Z,0.55
2022-11-17T12:08:10.849Z,0.10
2022-11-17T12:10:59.500Z,0.47
2022-11-17T12:13:27.335Z,0.43
2022-11-17T12:16:18.424Z,0.10
2022-11-17T12:18:48.263Z,0.32
2022-11-17T12:21:25.849Z,0.10
2022-11-17T12:24:25.539Z,0.60
2022-11-17T12:27:15.458Z,0.47
2022-11-17T12:29:46.666Z,0.47
2022-11-17T12:35:22.941Z,0.20
2022-11-17T12:38:12.902Z,0.40
2022-11-17T12:40:41.747Z,0.00
2022-11-17T12:43:15.220Z,0.30
2022-11-17T12:46:12.518Z,0.52
2022-11-17T12:48:52.018Z,0.08
2022-11-17T12:51:22.377Z,0.10
2022-11-17T12:54:11.852Z,0.40
2022-11-17T12:56:57.497Z,0.55
2022-11-17T12:59:39.449Z,0.47
2022-11-17T13:02:38.788Z,0.28
2022-11-17T13:05:14.025Z,0.15
2022-11-17T13:07:41.713Z,0.15
2022-11-17T13:10:31.606Z,0.10
2022-11-17T13:13:19.476Z,0.52
2022-11-17T13:15:56.836Z,0.22
2022-11-17T13:18:41.996Z,0.38
2022-11-17T13:21:27.654Z,0.43
2022-11-17T13:23:59.641Z,0.20
2022-11-17T13:26:31.752Z,0.13
2022-11-17T13:29:06.507Z,0.25
2022-11-17T13:31:34.351Z,0.68
2022-11-17T13:34:04.284Z,0.10
2022-11-17T13:36:31.913Z,1.17
2022-11-17T13:39:00.186Z,0.22
2022-11-17T13:41:32.676Z,0.35
2022-11-17T13:44:04.932Z,0.80
2022-11-17T13:46:35.416Z,0.63
2022-11-17T13:49:38.608Z,0.10
2022-11-17T13:52:24.219Z,0.50
2022-11-17T13:54:51.660Z,0.93
2022-11-17T13:57:26.702Z,0.20
2022-11-17T13:59:58.590Z,0.13
2022-11-17T14:02:27.858Z,0.88
2022-11-17T14:05:17.093Z,0.57
2022-11-17T14:07:48.791Z,0.10
2022-11-17T14:10:22.178Z,0.52
2022-11-17T14:13:14.271Z,0.30
2022-11-17T14:15:53.627Z,0.43
2022-11-17T14:18:21.318Z,0.30
2022-11-17T14:21:04.850Z,0.10
2022-11-17T14:23:32.304Z,0.10
2022-11-17T14:25:59.659Z,0.30
2022-11-17T14:28:27.598Z,0.57
2022-11-17T14:30:58.248Z,0.15
2022-11-17T14:33:25.965Z,0.57
2022-11-17T14:35:56.659Z,0.35
2022-11-17T14:38:24.550Z,0.60
2022-11-17T14:40:54.343Z,0.13
2022-11-17T14:43:22.226Z,0.50
2022-11-17T14:45:50.428Z,0.20
2022-11-17T14:48:19.705Z,0.75
2022-11-17T14:50:48.751Z,0.10
2022-11-17T14:53:16.289Z,0.43
2022-11-17T14:55:43.913Z,0.17
2022-11-17T14:58:12.066Z,0.43
2022-11-17T15:00:42.245Z,0.32
2022-11-17T15:03:17.024Z,0.10
2022-11-17T15:05:48.146Z,0.43
2022-11-17T15:08:15.596Z,0.30
2022-11-17T15:10:48.629Z,0.13
2022-11-17T15:13:19.570Z,0.28
2022-11-17T15:15:50.637Z,0.35
2022-11-17T15:18:20.628Z,0.38
2022-11-17T15:20:48.348Z,0.52
2022-11-17T15:23:21.162Z,0.53
2022-11-17T15:25:48.447Z,0.10
2022-11-17T15:28:23.084Z,0.50
2022-11-17T15:30:51.508Z,0.32
2022-11-17T15:33:18.826Z,0.30
2022-11-17T15:35:46.326Z,0.32
2022-11-17T15:38:13.693Z,0.10
2022-11-17T15:40:41.059Z,0.17
2022-11-17T15:43:08.363Z,0.17
2022-11-17T15:45:35.793Z,0.30
2022-11-17T15:48:03.405Z,0.85
2022-11-17T15:50:34.058Z,0.85
2022-11-17T15:53:07.392Z,0.43
2022-11-17T15:55:40.644Z,1.15
2022-11-17T15:58:07.911Z,0.80
2022-11-17T16:00:35.484Z,0.90
2022-11-17T16:03:06.770Z,1.10
2022-11-17T16:05:37.190Z,0.60
2022-11-17T16:08:08.053Z,0.40
2022-11-17T16:10:40.705Z,0.10
2022-11-17T16:13:11.437Z,0.35
2022-11-17T16:15:53.369Z,1.08
2022-11-17T16:18:28.468Z,0.28
2022-11-17T16:21:41.426Z,0.10
2022-11-17T16:24:19.789Z,0.47
2022-11-17T16:27:00.113Z,0.57
2022-11-17T16:32:30.989Z,0.10
2022-11-17T16:35:04.562Z,0.05
2022-11-17T16:37:40.405Z,0.63
2022-11-17T16:40:14.044Z,0.10
2022-11-17T16:42:47.210Z,0.35
2022-11-17T16:45:23.538Z,0.20
2022-11-17T16:48:15.248Z,0.17
2022-11-17T16:50:52.574Z,0.15
2022-11-17T16:53:32.751Z,0.68
2022-11-17T16:56:14.061Z,0.30
2022-11-17T16:58:53.918Z,1.25
2022-11-17T17:01:26.591Z,0.68
2022-11-17T17:04:09.108Z,0.10
2022-11-17T17:06:52.580Z,0.22
2022-11-17T17:09:40.717Z,0.30
2022-11-17T17:12:23.064Z,0.35
2022-11-17T17:15:00.175Z,0.20
2022-11-17T17:20:36.788Z,0.20
2022-11-17T17:29:12.292Z,0.30
2022-11-17T17:31:52.134Z,0.77
2022-11-17T17:34:32.906Z,0.13
2022-11-17T17:37:24.246Z,0.20
2022-11-17T17:40:02.373Z,0.47
2022-11-17T17:42:46.005Z,0.35
2022-11-17T17:45:20.257Z,0.22
2022-11-17T17:48:00.960Z,0.35
2022-11-17T17:50:35.675Z,0.30
2022-11-17T17:53:13.192Z,0.45
2022-11-17T17:55:54.050Z,0.10
2022-11-17T17:58:33.157Z,0.40
2022-11-17T18:01:14.984Z,0.57
2022-11-17T18:03:50.261Z,0.35
2022-11-17T18:06:26.897Z,0.22
2022-11-17T18:09:04.095Z,1.08
2022-11-17T18:11:37.823Z,0.75
2022-11-17T18:14:11.271Z,0.82
2022-11-17T18:16:42.678Z,0.10
2022-11-17T18:21:46.095Z,0.32
2022-11-17T18:24:17.519Z,0.20
2022-11-17T18:26:47.968Z,0.45
2022-11-17T18:29:23.565Z,0.20
2022-11-17T18:31:54.006Z,0.32
2022-11-17T18:34:25.231Z,0.20
2022-11-17T18:36:54.635Z,0.10
2022-11-17T18:39:24.813Z,0.20
2022-11-17T18:41:55.515Z,0.20
2022-11-17T18:44:26.627Z,0.50
2022-11-17T18:46:57.071Z,0.63
2022-11-17T18:49:33.075Z,0.75
2022-11-17T18:52:00.542Z,0.10
2022-11-17T18:54:30.852Z,0.68
2022-11-17T18:57:01.543Z,0.50
2022-11-17T18:59:32.454Z,0.22
2022-11-17T19:02:05.898Z,0.52
2022-11-17T19:04:33.252Z,0.57
2022-11-17T19:07:06.011Z,0.55
2022-11-17T19:09:33.437Z,0.10
2022-11-17T19:12:00.761Z,0.40
2022-11-17T19:14:31.287Z,0.40
2022-11-17T19:16:58.562Z,0.50
2022-11-17T19:19:29.764Z,0.57
2022-11-17T19:22:00.212Z,0.82
2022-11-17T19:24:30.756Z,0.40
2022-11-17T19:27:03.582Z,0.87
2022-11-17T19:29:34.155Z,0.63
2022-11-17T19:32:04.030Z,0.30
2022-11-17T19:34:31.303Z,0.47
2022-11-17T19:36:58.625Z,0.73
2022-11-17T19:39:26.346Z,0.47
2022-11-17T19:41:53.706Z,0.10
2022-11-17T19:44:24.478Z,1.02
2022-11-17T19:46:57.406Z,0.20
2022-11-17T19:49:25.150Z,0.57
2022-11-17T19:51:52.939Z,2.35
2022-11-17T19:54:23.242Z,0.32
2022-11-17T19:56:52.643Z,0.17
2022-11-17T19:59:33.001Z,0.95
2022-11-17T20:02:03.898Z,0.10
2022-11-17T20:04:37.043Z,0.60
2022-11-17T20:07:04.574Z,0.30
2022-11-17T20:09:35.306Z,0.20
2022-11-17T20:12:06.408Z,0.50
2022-11-17T20:14:40.200Z,0.20
2022-11-17T20:17:16.449Z,0.30
2022-11-17T20:19:47.324Z,0.28
2022-11-17T20:22:17.716Z,0.35
2022-11-17T20:24:50.766Z,0.20
2022-11-17T20:27:18.270Z,1.63
2022-11-17T20:29:57.913Z,0.63
2022-11-17T20:32:33.923Z,0.60
2022-11-17T20:35:05.163Z,0.20
2022-11-17T20:37:35.153Z,0.50
2022-11-17T20:40:02.738Z,1.00
2022-11-17T20:42:36.555Z,0.80
2022-11-17T20:45:07.897Z,0.47
2022-11-17T20:47:36.177Z,0.45
2022-11-17T20:50:11.932Z,0.40
2022-11-17T20:52:45.322Z,0.35
2022-11-17T20:55:25.222Z,1.15
2022-11-17T20:58:02.314Z,0.52
2022-11-17T21:00:40.520Z,1.58
2022-11-17T21:03:17.187Z,2.10
2022-11-17T21:05:58.365Z,0.65
2022-11-17T21:08:36.155Z,2.05
2022-11-17T21:11:10.131Z,0.30
2022-11-17T21:13:40.834Z,0.40
2022-11-17T21:16:11.624Z,0.45
2022-11-17T21:18:53.322Z,1.35
2022-11-17T21:21:34.841Z,0.77
2022-11-17T21:26:31.744Z,0.52
2022-11-17T21:29:06.968Z,1.05
2022-11-17T21:31:35.439Z,0.10
2022-11-17T21:34:24.854Z,0.60
2022-11-17T21:36:53.632Z,0.40
2022-11-17T21:39:24.070Z,0.30
2022-11-17T21:41:57.068Z,0.10
2022-11-17T21:44:32.019Z,0.10
2022-11-17T21:46:59.926Z,0.40
2022-11-17T21:49:27.490Z,0.20
2022-11-17T21:51:58.287Z,0.20
2022-11-17T21:54:28.345Z,1.25
2022-11-17T21:56:55.719Z,0.32
2022-11-17T21:59:23.016Z,0.10
2022-11-17T22:01:50.915Z,0.22
2022-11-17T22:04:18.222Z,0.57
2022-11-17T22:06:51.304Z,0.93
2022-11-17T22:09:21.882Z,2.28
2022-11-17T22:11:49.239Z,0.63
2022-11-17T22:14:18.495Z,0.20
2022-11-17T22:16:47.859Z,1.33
2022-11-17T22:19:17.049Z,0.10
2022-11-17T22:21:46.952Z,0.73
2022-11-17T22:24:18.033Z,0.40
2022-11-17T22:26:45.825Z,0.52
2022-11-17T22:29:16.417Z,0.82
2022-11-17T22:31:48.472Z,0.32
2022-11-17T22:34:16.760Z,0.20
2022-11-17T22:36:44.561Z,0.32
2022-11-17T22:39:12.672Z,0.20
2022-11-17T22:41:43.483Z,0.90
2022-11-17T22:44:15.340Z,0.30
2022-11-17T22:46:45.547Z,0.20
2022-11-17T22:49:16.402Z,0.25
2022-11-17T22:51:43.760Z,0.43
2022-11-17T22:54:13.662Z,1.15
2022-11-17T22:56:42.478Z,0.10
2022-11-17T22:59:13.396Z,0.45
2022-11-17T23:01:41.106Z,0.80
2022-11-17T23:04:08.508Z,0.95
2022-11-17T23:06:39.416Z,0.30
2022-11-17T23:09:09.504Z,0.43
2022-11-17T23:11:38.507Z,0.60
2022-11-17T23:14:09.299Z,0.30
2022-11-17T23:16:37.832Z,0.70
2022-11-17T23:19:12.637Z,0.85
2022-11-17T23:21:40.262Z,0.20
2022-11-17T23:24:10.514Z,0.68
2022-11-17T23:26:41.556Z,0.40
2022-11-17T23:29:09.340Z,0.52
2022-11-17T23:31:42.020Z,0.25
2022-11-17T23:34:10.357Z,0.28
2022-11-17T23:36:43.553Z,1.15
2022-11-17T23:39:17.626Z,0.30
2022-11-17T23:41:48.189Z,0.77
2022-11-17T23:44:16.323Z,0.52
2022-11-17T23:46:50.297Z,0.82
2022-11-17T23:49:20.375Z,1.38
2022-11-17T23:51:50.176Z,0.32
2022-11-17T23:54:17.655Z,0.30
2022-11-17T23:56:44.930Z,0.63
2022-11-17T23:59:12.319Z,0.52
